BAW4K EVRA-EGKK
Flight info
| Callsign | BAW4K |
|---|---|
| Flight time | N/A |
| Altitude | 40000 |
| Route | VALED2F VALED DCT LASMA M864 ADAXA DCT NINTA DCT GIMRU DCT OMWEG DCT GALSO Q63 ARREK Y4 TEBRA TEBRA2G |
| Aircraft | B772/H-SDE2E3FGHIJ5LORVWXY/LB1D1 |
Departure
| Time | N/A |
|---|---|
| Airport | Riga International Airport (EVRA) |
Arrival
| Time | 2026-05-03 20:22 |
|---|---|
| Airport | London Gatwick Airport (EGKK) |
| Time | Latitude | Longitude | Altitude | Speed | Heading |
|---|---|---|---|---|---|
| 2026-05-03 20:15 | 50.99127 | 0.19255 | 6211 ft | 247 kts | 324° |
| 2026-05-03 20:15 | 51.00570 | 0.17702 | 5702 ft | 255 kts | 324° |
| 2026-05-03 20:15 | 51.02028 | 0.16135 | 5334 ft | 257 kts | 324° |
| 2026-05-03 20:15 | 51.03491 | 0.14565 | 4951 ft | 246 kts | 325° |
| 2026-05-03 20:16 | 51.04908 | 0.13044 | 4560 ft | 247 kts | 324° |
| 2026-05-03 20:16 | 51.06337 | 0.11506 | 4136 ft | 251 kts | 324° |
| 2026-05-03 20:16 | 51.07752 | 0.09984 | 3605 ft | 239 kts | 324° |
| 2026-05-03 20:16 | 51.09097 | 0.08537 | 3135 ft | 227 kts | 324° |
| 2026-05-03 20:17 | 51.10380 | 0.07154 | 2674 ft | 217 kts | 324° |
| 2026-05-03 20:17 | 51.11602 | 0.05837 | 2230 ft | 207 kts | 324° |
| 2026-05-03 20:17 | 51.12774 | 0.04573 | 2129 ft | 209 kts | 324° |
| 2026-05-03 20:17 | 51.13975 | 0.03273 | 2068 ft | 209 kts | 324° |
| 2026-05-03 20:18 | 51.15147 | 0.02007 | 2030 ft | 195 kts | 324° |
| 2026-05-03 20:18 | 51.16195 | 0.00866 | 2038 ft | 171 kts | 321° |
| 2026-05-03 20:18 | 51.16835 | -0.00573 | 1982 ft | 162 kts | 281° |
| 2026-05-03 20:18 | 51.16870 | -0.02371 | 2015 ft | 165 kts | 267° |
| 2026-05-03 20:19 | 51.16772 | -0.04188 | 1902 ft | 165 kts | 263° |
| 2026-05-03 20:19 | 51.16625 | -0.05957 | 1703 ft | 158 kts | 260° |
| 2026-05-03 20:19 | 51.16403 | -0.07660 | 1473 ft | 156 kts | 257° |
| 2026-05-03 20:19 | 51.16179 | -0.09265 | 1274 ft | 141 kts | 257° |
| 2026-05-03 20:20 | 51.15975 | -0.10732 | 1070 ft | 132 kts | 257° |
| 2026-05-03 20:20 | 51.15778 | -0.12146 | 897 ft | 131 kts | 256° |
| 2026-05-03 20:20 | 51.15578 | -0.13581 | 724 ft | 133 kts | 256° |
| 2026-05-03 20:20 | 51.15376 | -0.15008 | 536 ft | 132 kts | 255° |
| 2026-05-03 20:21 | 51.15182 | -0.16392 | 357 ft | 128 kts | 254° |
| 2026-05-03 20:21 | 51.14985 | -0.17800 | 222 ft | 127 kts | 254° |
| 2026-05-03 20:21 | 51.14820 | -0.18989 | 218 ft | 88 kts | 257° |
| 2026-05-03 20:21 | 51.14719 | -0.19717 | 218 ft | 52 kts | 257° |
| 2026-05-03 20:22 | 51.14733 | -0.20211 | 213 ft | 42 kts | 283° |
| 2026-05-03 20:22 | 51.14786 | -0.20572 | 219 ft | 23 kts | 285° |
| 2026-05-03 20:22 | 51.14874 | -0.20581 | 216 ft | 15 kts | 64° |
| 2026-05-03 20:22 | 51.14899 | -0.20419 | 217 ft | 15 kts | 77° |
| 2026-05-03 20:23 | 51.14922 | -0.20254 | 209 ft | 15 kts | 77° |
| 2026-05-03 20:23 | 51.14957 | -0.19992 | 218 ft | 32 kts | 78° |
| 2026-05-03 20:23 | 51.15004 | -0.19649 | 218 ft | 31 kts | 78° |
| 2026-05-03 20:23 | 51.15046 | -0.19356 | 214 ft | 22 kts | 77° |
| 2026-05-03 20:24 | 51.15079 | -0.19120 | 215 ft | 22 kts | 77° |
| 2026-05-03 20:24 | 51.15109 | -0.18883 | 212 ft | 22 kts | 77° |
| 2026-05-03 20:24 | 51.15135 | -0.18694 | 212 ft | 15 kts | 77° |
| 2026-05-03 20:24 | 51.15157 | -0.18535 | 214 ft | 15 kts | 77° |
| 2026-05-03 20:25 | 51.15173 | -0.18422 | 220 ft | 8 kts | 78° |
| 2026-05-03 20:25 | 51.15183 | -0.18348 | 215 ft | 0 kts | 78° |
| 2026-05-03 20:25 | 51.15183 | -0.18347 | 215 ft | 0 kts | 78° |
| 2026-05-03 20:25 | 51.15183 | -0.18344 | 216 ft | 0 kts | 78° |
| 2026-05-03 20:26 | 51.15185 | -0.18318 | 217 ft | 7 kts | 84° |
| 2026-05-03 20:26 | 51.15189 | -0.18277 | 218 ft | 0 kts | 81° |
| 2026-05-03 20:26 | 51.15206 | -0.18232 | 219 ft | 8 kts | 29° |
| 2026-05-03 20:26 | 51.15274 | -0.18242 | 215 ft | 13 kts | 350° |
| 2026-05-03 20:27 | 51.15379 | -0.18277 | 219 ft | 22 kts | 352° |
| 2026-05-03 20:27 | 51.15452 | -0.18144 | 217 ft | 15 kts | 77° |
| 2026-05-03 20:27 | 51.15466 | -0.18039 | 216 ft | 0 kts | 79° |
| 2026-05-03 20:28 | 51.15467 | -0.18029 | 215 ft | 9 kts | 79° |
| 2026-05-03 20:28 | 51.15491 | -0.17860 | 215 ft | 17 kts | 76° |
| 2026-05-03 20:29 | 51.15517 | -0.17678 | 217 ft | 17 kts | 77° |
| 2026-05-03 20:29 | 51.15545 | -0.17497 | 215 ft | 17 kts | 65° |
| 2026-05-03 20:29 | 51.15600 | -0.17335 | 214 ft | 17 kts | 75° |
| 2026-05-03 20:29 | 51.15629 | -0.17156 | 214 ft | 17 kts | 78° |
| 2026-05-03 20:30 | 51.15651 | -0.16985 | 219 ft | 8 kts | 79° |
| 2026-05-03 20:30 | 51.15644 | -0.16928 | 217 ft | 3 kts | 153° |
| 2026-05-03 20:30 | 51.15637 | -0.16926 | 214 ft | 0 kts | 167° |
| 2026-05-03 20:31 | 51.15629 | -0.16924 | 214 ft | 8 kts | 167° |
| 2026-05-03 20:31 | 51.15595 | -0.16912 | 215 ft | 3 kts | 167° |
| 2026-05-03 20:32 | 51.15584 | -0.16908 | 212 ft | 0 kts | 167° |